RKPK/PUS METAR and TAF weather

Enter ICAO airport designator
Station Type Date Time Source
RKPK METAR 2021/05/14 04:00 UTC NOAA

RKPK 140400Z 17007KT 9999 FEW040 BKN200 26/18 Q1012


Station Type Date Time Source
RKPK Decoded METAR 2021/05/14 04:00 UTC NOAA

Pusan / Kimhae International Airport, Korea, South (RKPK) 35-11N 128-56E 6M
May 14, 2021 - 12:00 AM EDT / 2021.05.14 0400 UTC
Wind: from the S (170 degrees) at 8 MPH (7 KT):0
Visibility: greater than 7 mile(s):0
Sky conditions: mostly cloudy
Temperature: 78 F (26 C)
Dew Point: 64 F (18 C)
Relative Humidity: 61%
Pressure (altimeter): 29.88 in. Hg (1012 hPa)
ob: RKPK 140400Z 17007KT 9999 FEW040 BKN200 26/18 Q1012
cycle: 4

Station Type Date Time Source
RKPK TAF 2021/05/13 18:09 UTC NOAA

TAF RKPK 131700Z 1318/1424 33006KT CAVOK TN13/1321Z TX25/1406Z
BECMG 1401/1402 09010KT
BECMG 1409/1410 33006KT
BECMG 1414/1415 03006KT BKN100 BKN200

Example: see airport list